sensor_id;sensor_type;location;lat;lon;timestamp;pressure;altitude;pressure_sealevel;temperature;humidity
10988;BME280;5547;42.672;23.230;2023-08-01T00:00:17;93043.16;;;15.75;100.00
10988;BME280;5547;42.672;23.230;2023-08-01T00:03:17;93049.97;;;15.67;100.00
10988;BME280;5547;42.672;23.230;2023-08-01T00:06:17;93025.34;;;15.59;100.00
10988;BME280;5547;42.672;23.230;2023-08-01T00:09:19;93009.22;;;15.41;100.00
10988;BME280;5547;42.672;23.230;2023-08-01T00:12:20;93051.16;;;15.66;100.00
10988;BME280;5547;42.672;23.230;2023-08-01T00:15:21;93043.31;;;15.71;100.00
10988;BME280;5547;42.672;23.230;2023-08-01T00:18:21;93046.25;;;15.64;100.00
10988;BME280;5547;42.672;23.230;2023-08-01T00:21:21;93026.66;;;15.45;100.00
10988;BME280;5547;42.672;23.230;2023-08-01T00:24:22;93037.38;;;15.45;100.00
10988;BME280;5547;42.672;23.230;2023-08-01T00:27:22;93025.44;;;15.37;100.00
10988;BME280;5547;42.672;23.230;2023-08-01T00:30:24;93034.09;;;15.41;100.00
10988;BME280;5547;42.672;23.230;2023-08-01T00:33:24;93033.81;;;15.39;100.00
10988;BME280;5547;42.672;23.230;2023-08-01T00:36:25;93011.69;;;15.17;100.00
10988;BME280;5547;42.672;23.230;2023-08-01T00:39:25;93033.50;;;15.37;100.00
10988;BME280;5547;42.672;23.230;2023-08-01T00:42:25;93030.47;;;15.26;100.00
10988;BME280;5547;42.672;23.230;2023-08-01T00:45:26;93031.44;;;15.41;100.00
10988;BME280;5547;42.672;23.230;2023-08-01T00:48:28;93003.78;;;15.22;100.00
10988;BME280;5547;42.672;23.230;2023-08-01T00:51:31;92997.84;;;15.18;100.00
10988;BME280;5547;42.672;23.230;2023-08-01T00:54:31;92984.41;;;15.09;100.00
10988;BME280;5547;42.672;23.230;2023-08-01T00:57:36;93025.00;;;15.39;100.00
10988;BME280;5547;42.672;23.230;2023-08-01T01:00:36;93024.25;;;15.38;100.00
10988;BME280;5547;42.672;23.230;2023-08-01T01:03:39;93014.25;;;15.29;100.00
10988;BME280;5547;42.672;23.230;2023-08-01T01:06:58;93024.09;;;15.32;100.00
10988;BME280;5547;42.672;23.230;2023-08-01T01:10:00;92992.56;;;15.05;100.00
10988;BME280;5547;42.672;23.230;2023-08-01T01:13:00;93023.06;;;15.39;100.00
10988;BME280;5547;42.672;23.230;2023-08-01T01:16:01;93015.34;;;15.41;100.00
10988;BME280;5547;42.672;23.230;2023-08-01T01:19:01;92979.56;;;15.26;100.00
10988;BME280;5547;42.672;23.230;2023-08-01T01:22:04;93009.72;;;15.48;100.00
10988;BME280;5547;42.672;23.230;2023-08-01T01:25:07;93013.72;;;15.44;100.00
10988;BME280;5547;42.672;23.230;2023-08-01T01:28:09;93011.34;;;15.46;100.00
10988;BME280;5547;42.672;23.230;2023-08-01T01:31:10;92979.25;;;15.24;100.00
10988;BME280;5547;42.672;23.230;2023-08-01T01:34:11;93002.50;;;15.36;100.00
10988;BME280;5547;42.672;23.230;2023-08-01T01:37:12;92968.47;;;15.05;100.00
10988;BME280;5547;42.672;23.230;2023-08-01T01:40:12;92995.44;;;15.20;100.00
10988;BME280;5547;42.672;23.230;2023-08-01T01:43:12;92970.34;;;14.86;100.00
10988;BME280;5547;42.672;23.230;2023-08-01T01:46:13;93000.00;;;15.01;100.00
10988;BME280;5547;42.672;23.230;2023-08-01T01:49:13;93006.50;;;14.91;100.00
10988;BME280;5547;42.672;23.230;2023-08-01T01:52:13;92989.81;;;14.87;100.00
10988;BME280;5547;42.672;23.230;2023-08-01T01:55:14;93001.41;;;14.84;100.00
10988;BME280;5547;42.672;23.230;2023-08-01T01:58:14;92984.31;;;14.59;100.00
10988;BME280;5547;42.672;23.230;2023-08-01T02:01:15;93002.22;;;14.71;100.00
10988;BME280;5547;42.672;23.230;2023-08-01T02:04:15;93001.91;;;14.69;100.00
10988;BME280;5547;42.672;23.230;2023-08-01T02:07:16;92976.63;;;14.48;100.00
10988;BME280;5547;42.672;23.230;2023-08-01T02:10:16;93003.63;;;14.54;100.00
10988;BME280;5547;42.672;23.230;2023-08-01T02:13:16;92997.88;;;14.43;100.00
10988;BME280;5547;42.672;23.230;2023-08-01T02:16:17;93010.28;;;14.37;100.00
10988;BME280;5547;42.672;23.230;2023-08-01T02:19:17;92966.56;;;14.08;100.00
10988;BME280;5547;42.672;23.230;2023-08-01T02:22:18;92987.53;;;14.10;100.00
10988;BME280;5547;42.672;23.230;2023-08-01T02:25:18;93001.75;;;14.07;100.00
10988;BME280;5547;42.672;23.230;2023-08-01T02:28:19;93000.19;;;13.97;100.00
10988;BME280;5547;42.672;23.230;2023-08-01T02:31:19;92993.81;;;13.81;100.00
10988;BME280;5547;42.672;23.230;2023-08-01T02:34:19;92990.31;;;13.72;100.00
10988;BME280;5547;42.672;23.230;2023-08-01T02:37:20;92995.34;;;13.70;100.00
10988;BME280;5547;42.672;23.230;2023-08-01T02:40:20;92975.81;;;13.60;100.00
10988;BME280;5547;42.672;23.230;2023-08-01T02:43:21;92955.31;;;13.44;100.00
10988;BME280;5547;42.672;23.230;2023-08-01T02:46:21;92991.59;;;13.67;100.00
10988;BME280;5547;42.672;23.230;2023-08-01T02:49:21;92977.84;;;13.56;100.00
10988;BME280;5547;42.672;23.230;2023-08-01T02:52:22;92935.03;;;13.34;100.00
10988;BME280;5547;42.672;23.230;2023-08-01T02:55:22;92944.00;;;13.27;100.00
10988;BME280;5547;42.672;23.230;2023-08-01T02:58:22;92982.88;;;13.54;100.00
10988;BME280;5547;42.672;23.230;2023-08-01T03:01:23;93006.38;;;13.59;100.00
10988;BME280;5547;42.672;23.230;2023-08-01T03:04:23;93001.78;;;13.47;100.00
10988;BME280;5547;42.672;23.230;2023-08-01T03:07:24;92992.41;;;13.29;100.00
10988;BME280;5547;42.672;23.230;2023-08-01T03:10:24;92969.41;;;13.19;100.00
10988;BME280;5547;42.672;23.230;2023-08-01T03:13:25;92963.00;;;13.16;100.00
10988;BME280;5547;42.672;23.230;2023-08-01T03:16:25;92998.50;;;13.42;100.00
10988;BME280;5547;42.672;23.230;2023-08-01T03:19:25;92998.19;;;13.40;100.00
10988;BME280;5547;42.672;23.230;2023-08-01T03:22:26;92952.13;;;13.11;100.00
10988;BME280;5547;42.672;23.230;2023-08-01T03:25:26;92999.75;;;13.51;100.00
10988;BME280;5547;42.672;23.230;2023-08-01T03:28:27;93003.19;;;13.51;100.00
10988;BME280;5547;42.672;23.230;2023-08-01T03:31:28;92999.53;;;13.58;100.00
10988;BME280;5547;42.672;23.230;2023-08-01T03:34:28;92970.69;;;13.53;100.00
10988;BME280;5547;42.672;23.230;2023-08-01T03:37:29;92997.06;;;13.63;100.00
10988;BME280;5547;42.672;23.230;2023-08-01T03:40:29;93003.25;;;13.73;100.00
10988;BME280;5547;42.672;23.230;2023-08-01T03:43:30;92977.31;;;13.61;100.00
10988;BME280;5547;42.672;23.230;2023-08-01T03:46:30;93000.63;;;13.95;100.00
10988;BME280;5547;42.672;23.230;2023-08-01T03:49:31;92998.00;;;14.04;100.00
10988;BME280;5547;42.672;23.230;2023-08-01T03:52:31;93007.63;;;14.37;100.00
10988;BME280;5547;42.672;23.230;2023-08-01T03:55:31;93012.75;;;14.66;100.00
10988;BME280;5547;42.672;23.230;2023-08-01T03:58:32;92946.53;;;14.57;100.00
10988;BME280;5547;42.672;23.230;2023-08-01T04:01:32;93011.41;;;15.24;100.00
10988;BME280;5547;42.672;23.230;2023-08-01T04:04:32;92967.63;;;15.18;100.00
10988;BME280;5547;42.672;23.230;2023-08-01T04:07:33;92975.59;;;15.49;100.00
10988;BME280;5547;42.672;23.230;2023-08-01T04:10:33;92959.97;;;15.57;100.00
10988;BME280;5547;42.672;23.230;2023-08-01T04:13:34;93013.88;;;16.17;100.00
10988;BME280;5547;42.672;23.230;2023-08-01T04:16:34;93006.69;;;16.33;100.00
10988;BME280;5547;42.672;23.230;2023-08-01T04:19:34;93019.78;;;16.68;100.00
10988;BME280;5547;42.672;23.230;2023-08-01T04:22:35;93003.09;;;16.64;100.00
10988;BME280;5547;42.672;23.230;2023-08-01T04:25:36;93030.97;;;17.03;100.00
10988;BME280;5547;42.672;23.230;2023-08-01T04:28:36;93033.09;;;17.32;100.00
10988;BME280;5547;42.672;23.230;2023-08-01T04:31:37;93026.31;;;17.79;100.00
10988;BME280;5547;42.672;23.230;2023-08-01T04:34:37;92971.56;;;17.34;100.00
10988;BME280;5547;42.672;23.230;2023-08-01T04:37:37;93032.13;;;17.87;100.00
10988;BME280;5547;42.672;23.230;2023-08-01T04:40:38;93027.25;;;18.00;100.00
10988;BME280;5547;42.672;23.230;2023-08-01T04:43:38;93030.34;;;17.84;100.00
10988;BME280;5547;42.672;23.230;2023-08-01T04:46:38;93030.38;;;17.75;100.00
10988;BME280;5547;42.672;23.230;2023-08-01T04:49:39;93033.78;;;17.84;100.00
10988;BME280;5547;42.672;23.230;2023-08-01T04:52:39;92958.16;;;17.25;100.00
10988;BME280;5547;42.672;23.230;2023-08-01T04:55:40;93029.34;;;17.72;100.00
10988;BME280;5547;42.672;23.230;2023-08-01T04:58:40;93034.28;;;17.64;100.00
10988;BME280;5547;42.672;23.230;2023-08-01T05:01:41;93007.34;;;17.74;100.00
10988;BME280;5547;42.672;23.230;2023-08-01T05:04:41;92988.50;;;17.50;100.00
10988;BME280;5547;42.672;23.230;2023-08-01T05:07:42;93030.78;;;18.06;100.00
10988;BME280;5547;42.672;23.230;2023-08-01T05:10:42;93014.88;;;18.18;100.00
10988;BME280;5547;42.672;23.230;2023-08-01T05:13:43;93033.69;;;18.18;100.00
10988;BME280;5547;42.672;23.230;2023-08-01T05:16:43;92991.84;;;17.69;100.00
10988;BME280;5547;42.672;23.230;2023-08-01T05:19:43;93029.34;;;18.44;100.00
10988;BME280;5547;42.672;23.230;2023-08-01T05:22:44;93036.88;;;18.70;100.00
10988;BME280;5547;42.672;23.230;2023-08-01T05:25:44;93036.56;;;18.77;100.00
10988;BME280;5547;42.672;23.230;2023-08-01T05:28:45;93044.09;;;19.03;100.00
10988;BME280;5547;42.672;23.230;2023-08-01T05:31:45;93016.78;;;18.95;100.00
10988;BME280;5547;42.672;23.230;2023-08-01T05:34:46;93025.78;;;19.07;100.00
10988;BME280;5547;42.672;23.230;2023-08-01T05:37:46;93010.38;;;18.93;100.00
10988;BME280;5547;42.672;23.230;2023-08-01T05:40:47;93049.53;;;19.53;100.00
10988;BME280;5547;42.672;23.230;2023-08-01T05:43:49;93050.69;;;19.82;100.00
10988;BME280;5547;42.672;23.230;2023-08-01T05:46:49;93033.59;;;19.85;100.00
10988;BME280;5547;42.672;23.230;2023-08-01T05:49:50;93036.56;;;20.07;100.00
10988;BME280;5547;42.672;23.230;2023-08-01T05:52:50;93001.34;;;19.61;100.00
10988;BME280;5547;42.672;23.230;2023-08-01T05:55:51;93023.09;;;19.72;100.00
10988;BME280;5547;42.672;23.230;2023-08-01T05:58:51;93016.97;;;20.12;100.00
10988;BME280;5547;42.672;23.230;2023-08-01T06:01:51;93037.94;;;20.18;100.00
10988;BME280;5547;42.672;23.230;2023-08-01T06:04:52;93036.03;;;20.24;100.00
10988;BME280;5547;42.672;23.230;2023-08-01T06:07:52;93036.97;;;20.00;100.00
10988;BME280;5547;42.672;23.230;2023-08-01T06:10:52;92995.75;;;19.64;100.00
10988;BME280;5547;42.672;23.230;2023-08-01T06:13:53;93030.06;;;19.64;100.00
10988;BME280;5547;42.672;23.230;2023-08-01T06:16:53;93016.03;;;19.95;100.00
10988;BME280;5547;42.672;23.230;2023-08-01T06:19:54;93036.28;;;20.26;100.00
10988;BME280;5547;42.672;23.230;2023-08-01T06:22:55;93012.75;;;20.06;100.00
10988;BME280;5547;42.672;23.230;2023-08-01T06:25:55;93031.44;;;20.30;100.00
10988;BME280;5547;42.672;23.230;2023-08-01T06:28:55;93030.56;;;20.39;100.00
10988;BME280;5547;42.672;23.230;2023-08-01T06:31:56;93021.06;;;20.23;100.00
10988;BME280;5547;42.672;23.230;2023-08-01T06:34:56;93015.25;;;20.30;100.00
10988;BME280;5547;42.672;23.230;2023-08-01T06:37:56;93014.00;;;20.31;100.00
10988;BME280;5547;42.672;23.230;2023-08-01T06:40:57;93025.75;;;20.48;100.00
10988;BME280;5547;42.672;23.230;2023-08-01T06:43:57;93016.47;;;20.29;100.00
10988;BME280;5547;42.672;23.230;2023-08-01T06:46:58;93024.56;;;20.08;100.00
10988;BME280;5547;42.672;23.230;2023-08-01T06:49:58;93030.88;;;20.67;100.00
10988;BME280;5547;42.672;23.230;2023-08-01T06:52:59;93037.47;;;20.86;100.00
10988;BME280;5547;42.672;23.230;2023-08-01T06:56:00;93003.72;;;20.76;100.00
10988;BME280;5547;42.672;23.230;2023-08-01T06:59:00;93034.56;;;20.64;100.00
10988;BME280;5547;42.672;23.230;2023-08-01T07:02:01;93009.22;;;20.41;100.00
10988;BME280;5547;42.672;23.230;2023-08-01T07:05:02;92988.22;;;20.30;100.00
10988;BME280;5547;42.672;23.230;2023-08-01T07:08:02;93005.44;;;20.32;100.00
10988;BME280;5547;42.672;23.230;2023-08-01T07:11:03;93033.25;;;20.80;100.00
10988;BME280;5547;42.672;23.230;2023-08-01T07:14:03;93026.78;;;21.29;100.00
10988;BME280;5547;42.672;23.230;2023-08-01T07:17:04;93017.31;;;21.13;100.00
10988;BME280;5547;42.672;23.230;2023-08-01T07:20:04;93001.81;;;21.14;100.00
10988;BME280;5547;42.672;23.230;2023-08-01T07:23:05;93012.28;;;21.32;100.00
10988;BME280;5547;42.672;23.230;2023-08-01T07:26:05;93011.88;;;21.08;100.00
10988;BME280;5547;42.672;23.230;2023-08-01T07:29:06;92982.44;;;21.21;100.00
10988;BME280;5547;42.672;23.230;2023-08-01T07:32:08;92957.97;;;20.98;100.00
10988;BME280;5547;42.672;23.230;2023-08-01T07:35:09;93000.44;;;21.24;100.00
10988;BME280;5547;42.672;23.230;2023-08-01T07:38:09;93007.50;;;21.85;100.00
10988;BME280;5547;42.672;23.230;2023-08-01T07:41:10;93015.88;;;22.36;100.00
10988;BME280;5547;42.672;23.230;2023-08-01T07:44:10;92980.72;;;21.50;100.00
10988;BME280;5547;42.672;23.230;2023-08-01T07:47:11;93017.00;;;21.69;100.00
10988;BME280;5547;42.672;23.230;2023-08-01T07:50:11;93017.66;;;21.96;100.00
10988;BME280;5547;42.672;23.230;2023-08-01T07:53:11;93019.44;;;22.16;100.00
10988;BME280;5547;42.672;23.230;2023-08-01T07:56:12;92999.47;;;22.02;100.00
10988;BME280;5547;42.672;23.230;2023-08-01T07:59:12;93014.00;;;22.64;100.00
10988;BME280;5547;42.672;23.230;2023-08-01T08:02:13;92970.06;;;22.38;100.00
10988;BME280;5547;42.672;23.230;2023-08-01T08:05:13;93008.84;;;22.78;100.00
10988;BME280;5547;42.672;23.230;2023-08-01T08:08:14;92977.03;;;22.67;100.00
10988;BME280;5547;42.672;23.230;2023-08-01T08:11:14;93002.44;;;22.86;100.00
10988;BME280;5547;42.672;23.230;2023-08-01T08:14:16;92979.50;;;22.82;100.00
10988;BME280;5547;42.672;23.230;2023-08-01T08:17:17;92993.81;;;22.88;100.00
10988;BME280;5547;42.672;23.230;2023-08-01T08:20:17;92991.13;;;23.11;100.00
10988;BME280;5547;42.672;23.230;2023-08-01T08:23:18;92968.91;;;22.73;100.00
10988;BME280;5547;42.672;23.230;2023-08-01T08:26:19;92991.16;;;23.05;100.00
10988;BME280;5547;42.672;23.230;2023-08-01T08:29:19;92995.81;;;22.93;100.00
10988;BME280;5547;42.672;23.230;2023-08-01T08:32:20;92956.00;;;22.34;100.00
10988;BME280;5547;42.672;23.230;2023-08-01T08:35:20;92980.56;;;23.01;100.00
10988;BME280;5547;42.672;23.230;2023-08-01T08:38:21;92945.53;;;23.15;100.00
10988;BME280;5547;42.672;23.230;2023-08-01T08:41:22;92964.25;;;23.24;100.00
10988;BME280;5547;42.672;23.230;2023-08-01T08:44:25;92966.44;;;23.65;100.00
10988;BME280;5547;42.672;23.230;2023-08-01T08:47:25;92962.00;;;23.56;99.56
10988;BME280;5547;42.672;23.230;2023-08-01T08:50:29;92973.34;;;23.83;97.80
10988;BME280;5547;42.672;23.230;2023-08-01T08:53:31;92959.69;;;24.05;84.10
10988;BME280;5547;42.672;23.230;2023-08-01T08:56:34;92965.44;;;24.49;76.19
10988;BME280;5547;42.672;23.230;2023-08-01T08:59:35;92961.16;;;24.06;74.81
10988;BME280;5547;42.672;23.230;2023-08-01T09:02:36;92955.91;;;24.20;77.08
10988;BME280;5547;42.672;23.230;2023-08-01T09:06:21;92968.94;;;24.32;71.71
10988;BME280;5547;42.672;23.230;2023-08-01T09:09:20;92953.56;;;24.52;74.99
10988;BME280;5547;42.672;23.230;2023-08-01T09:12:22;92941.97;;;23.82;73.97
10988;BME280;5547;42.672;23.230;2023-08-01T09:15:25;92961.69;;;23.99;73.49
10988;BME280;5547;42.672;23.230;2023-08-01T09:18:27;92950.28;;;24.06;74.40
10988;BME280;5547;42.672;23.230;2023-08-01T09:21:31;92938.94;;;24.02;73.34
10988;BME280;5547;42.672;23.230;2023-08-01T09:24:34;92947.19;;;23.74;72.50
10988;BME280;5547;42.672;23.230;2023-08-01T09:27:34;92950.97;;;24.18;74.87
10988;BME280;5547;42.672;23.230;2023-08-01T09:30:45;92941.19;;;24.51;74.09
10988;BME280;5547;42.672;23.230;2023-08-01T09:33:45;92946.88;;;24.53;70.48
10988;BME280;5547;42.672;23.230;2023-08-01T09:36:46;92914.56;;;24.38;67.58
10988;BME280;5547;42.672;23.230;2023-08-01T09:39:53;92911.88;;;24.32;71.06
10988;BME280;5547;42.672;23.230;2023-08-01T09:43:01;92933.84;;;24.40;72.54
10988;BME280;5547;42.672;23.230;2023-08-01T09:46:02;92935.63;;;24.73;67.25
10988;BME280;5547;42.672;23.230;2023-08-01T09:49:09;92918.22;;;23.99;65.01
10988;BME280;5547;42.672;23.230;2023-08-01T09:52:10;92926.03;;;24.20;69.50
10988;BME280;5547;42.672;23.230;2023-08-01T09:55:10;92903.94;;;24.40;64.57
10988;BME280;5547;42.672;23.230;2023-08-01T09:58:13;92908.91;;;24.78;70.92
10988;BME280;5547;42.672;23.230;2023-08-01T10:01:14;92883.22;;;25.03;67.78
10988;BME280;5547;42.672;23.230;2023-08-01T10:04:21;92895.66;;;24.93;63.62
10988;BME280;5547;42.672;23.230;2023-08-01T10:07:25;92913.53;;;25.19;64.39
10988;BME280;5547;42.672;23.230;2023-08-01T10:10:27;92903.94;;;24.82;64.84
10988;BME280;5547;42.672;23.230;2023-08-01T10:13:28;92906.56;;;24.57;63.78
10988;BME280;5547;42.672;23.230;2023-08-01T10:16:30;92888.13;;;24.74;63.57
10988;BME280;5547;42.672;23.230;2023-08-01T10:19:32;92901.09;;;24.93;64.40
10988;BME280;5547;42.672;23.230;2023-08-01T10:22:35;92880.50;;;25.03;61.63
10988;BME280;5547;42.672;23.230;2023-08-01T10:25:36;92890.13;;;25.59;57.95
10988;BME280;5547;42.672;23.230;2023-08-01T10:28:40;92893.47;;;25.95;50.78
10988;BME280;5547;42.672;23.230;2023-08-01T10:31:51;92875.19;;;26.09;50.02
10988;BME280;5547;42.672;23.230;2023-08-01T10:34:52;92877.38;;;26.11;53.46
10988;BME280;5547;42.672;23.230;2023-08-01T10:37:53;92887.41;;;26.40;49.10
10988;BME280;5547;42.672;23.230;2023-08-01T10:40:53;92871.50;;;26.26;48.60
10988;BME280;5547;42.672;23.230;2023-08-01T10:44:08;92880.19;;;26.62;50.83
10988;BME280;5547;42.672;23.230;2023-08-01T10:47:09;92867.81;;;26.61;44.82
10988;BME280;5547;42.672;23.230;2023-08-01T10:50:16;92865.28;;;26.63;47.29
10988;BME280;5547;42.672;23.230;2023-08-01T10:53:17;92854.41;;;26.44;45.71
10988;BME280;5547;42.672;23.230;2023-08-01T10:56:19;92863.84;;;26.62;48.07
10988;BME280;5547;42.672;23.230;2023-08-01T10:59:21;92840.47;;;26.67;45.18
10988;BME280;5547;42.672;23.230;2023-08-01T11:02:26;92849.38;;;26.48;45.78
10988;BME280;5547;42.672;23.230;2023-08-01T11:05:28;92828.81;;;26.79;44.77
10988;BME280;5547;42.672;23.230;2023-08-01T11:08:40;92821.00;;;27.02;46.52
10988;BME280;5547;42.672;23.230;2023-08-01T11:11:40;92853.81;;;27.29;44.14
10988;BME280;5547;42.672;23.230;2023-08-01T11:14:41;92838.44;;;27.13;42.00
10988;BME280;5547;42.672;23.230;2023-08-01T11:18:09;92847.72;;;27.23;41.26
10988;BME280;5547;42.672;23.230;2023-08-01T11:21:09;92801.25;;;26.96;42.10
10988;BME280;5547;42.672;23.230;2023-08-01T11:24:10;92844.53;;;27.19;44.11
10988;BME280;5547;42.672;23.230;2023-08-01T11:27:11;92840.03;;;27.21;41.36
10988;BME280;5547;42.672;23.230;2023-08-01T11:30:11;92788.00;;;26.74;39.88
10988;BME280;5547;42.672;23.230;2023-08-01T11:33:23;92831.22;;;27.42;41.41
10988;BME280;5547;42.672;23.230;2023-08-01T11:36:26;92807.50;;;27.37;34.31
10988;BME280;5547;42.672;23.230;2023-08-01T11:39:27;92823.97;;;27.31;37.11
10988;BME280;5547;42.672;23.230;2023-08-01T11:42:31;92823.78;;;27.29;41.11
10988;BME280;5547;42.672;23.230;2023-08-01T11:45:33;92809.19;;;27.27;42.22
10988;BME280;5547;42.672;23.230;2023-08-01T11:48:33;92813.78;;;27.45;41.68
10988;BME280;5547;42.672;23.230;2023-08-01T11:51:44;92809.59;;;27.71;37.32
10988;BME280;5547;42.672;23.230;2023-08-01T11:54:45;92814.59;;;27.93;38.22
10988;BME280;5547;42.672;23.230;2023-08-01T11:57:56;92801.88;;;27.82;37.98
10988;BME280;5547;42.672;23.230;2023-08-01T12:01:09;92778.13;;;27.91;35.64
10988;BME280;5547;42.672;23.230;2023-08-01T12:04:10;92799.66;;;28.07;32.99
10988;BME280;5547;42.672;23.230;2023-08-01T12:07:14;92792.28;;;28.02;36.24
10988;BME280;5547;42.672;23.230;2023-08-01T12:10:15;92799.66;;;28.07;33.11
10988;BME280;5547;42.672;23.230;2023-08-01T12:13:19;92793.34;;;27.99;35.07
10988;BME280;5547;42.672;23.230;2023-08-01T12:16:20;92792.50;;;28.04;32.84
10988;BME280;5547;42.672;23.230;2023-08-01T12:19:21;92767.47;;;28.00;35.28
10988;BME280;5547;42.672;23.230;2023-08-01T12:22:21;92780.66;;;28.23;32.80
10988;BME280;5547;42.672;23.230;2023-08-01T12:25:22;92784.56;;;28.48;34.97
10988;BME280;5547;42.672;23.230;2023-08-01T12:28:22;92769.06;;;28.51;32.31
10988;BME280;5547;42.672;23.230;2023-08-01T12:31:23;92783.41;;;28.65;35.09
10988;BME280;5547;42.672;23.230;2023-08-01T12:34:23;92781.31;;;28.37;32.95
10988;BME280;5547;42.672;23.230;2023-08-01T12:37:24;92775.53;;;28.40;33.02
10988;BME280;5547;42.672;23.230;2023-08-01T12:40:24;92778.34;;;28.69;34.52
10988;BME280;5547;42.672;23.230;2023-08-01T12:43:25;92748.19;;;28.40;34.69
10988;BME280;5547;42.672;23.230;2023-08-01T12:46:25;92768.13;;;28.69;34.97
10988;BME280;5547;42.672;23.230;2023-08-01T12:49:25;92758.53;;;29.05;37.24
10988;BME280;5547;42.672;23.230;2023-08-01T12:52:26;92738.19;;;28.92;36.28
10988;BME280;5547;42.672;23.230;2023-08-01T12:55:26;92747.88;;;28.94;35.67
10988;BME280;5547;42.672;23.230;2023-08-01T12:58:27;92762.47;;;28.88;35.40
10988;BME280;5547;42.672;23.230;2023-08-01T13:01:27;92755.97;;;29.28;32.45
10988;BME280;5547;42.672;23.230;2023-08-01T13:04:28;92717.06;;;28.72;36.81
10988;BME280;5547;42.672;23.230;2023-08-01T13:07:28;92741.47;;;28.91;36.63
10988;BME280;5547;42.672;23.230;2023-08-01T13:10:32;92749.03;;;29.06;34.72
10988;BME280;5547;42.672;23.230;2023-08-01T13:13:33;92738.06;;;28.98;34.25
10988;BME280;5547;42.672;23.230;2023-08-01T13:16:33;92722.06;;;28.81;34.13
10988;BME280;5547;42.672;23.230;2023-08-01T13:19:34;92710.56;;;28.33;33.50
10988;BME280;5547;42.672;23.230;2023-08-01T13:22:34;92725.63;;;28.68;35.24
10988;BME280;5547;42.672;23.230;2023-08-01T13:25:34;92723.03;;;28.63;34.58
10988;BME280;5547;42.672;23.230;2023-08-01T13:28:35;92723.19;;;28.86;33.35
10988;BME280;5547;42.672;23.230;2023-08-01T13:31:36;92731.56;;;29.09;35.12
10988;BME280;5547;42.672;23.230;2023-08-01T13:34:36;92736.53;;;29.18;32.90
10988;BME280;5547;42.672;23.230;2023-08-01T13:37:37;92725.63;;;28.97;33.97
10988;BME280;5547;42.672;23.230;2023-08-01T13:40:37;92681.53;;;28.51;31.08
10988;BME280;5547;42.672;23.230;2023-08-01T13:43:37;92705.59;;;29.02;33.34
10988;BME280;5547;42.672;23.230;2023-08-01T13:46:38;92717.63;;;28.70;34.67
10988;BME280;5547;42.672;23.230;2023-08-01T13:49:38;92715.16;;;28.59;35.10
10988;BME280;5547;42.672;23.230;2023-08-01T13:52:39;92689.56;;;28.49;34.71
10988;BME280;5547;42.672;23.230;2023-08-01T13:55:40;92710.00;;;28.77;33.28
10988;BME280;5547;42.672;23.230;2023-08-01T13:58:41;92691.53;;;28.69;35.54
10988;BME280;5547;42.672;23.230;2023-08-01T14:01:41;92701.06;;;29.05;33.69
10988;BME280;5547;42.672;23.230;2023-08-01T14:04:41;92697.69;;;28.41;35.47
10988;BME280;5547;42.672;23.230;2023-08-01T14:07:42;92701.75;;;28.27;36.20
10988;BME280;5547;42.672;23.230;2023-08-01T14:10:42;92685.34;;;28.27;36.53
10988;BME280;5547;42.672;23.230;2023-08-01T14:13:43;92699.53;;;28.67;33.93
10988;BME280;5547;42.672;23.230;2023-08-01T14:16:43;92700.75;;;28.87;35.69
10988;BME280;5547;42.672;23.230;2023-08-01T14:19:44;92689.72;;;29.37;33.86
10988;BME280;5547;42.672;23.230;2023-08-01T14:22:44;92698.66;;;29.82;34.20
10988;BME280;5547;42.672;23.230;2023-08-01T14:25:45;92708.19;;;29.88;33.71
10988;BME280;5547;42.672;23.230;2023-08-01T14:28:45;92711.50;;;30.02;33.28
10988;BME280;5547;42.672;23.230;2023-08-01T14:31:46;92695.97;;;29.53;32.64
10988;BME280;5547;42.672;23.230;2023-08-01T14:34:46;92709.66;;;30.12;34.73
10988;BME280;5547;42.672;23.230;2023-08-01T14:37:47;92695.41;;;29.99;35.70
10988;BME280;5547;42.672;23.230;2023-08-01T14:40:48;92703.66;;;30.06;33.14
10988;BME280;5547;42.672;23.230;2023-08-01T14:43:49;92671.50;;;29.55;36.17
10988;BME280;5547;42.672;23.230;2023-08-01T14:46:49;92694.75;;;28.89;36.33
10988;BME280;5547;42.672;23.230;2023-08-01T14:49:50;92695.03;;;29.06;35.77
10988;BME280;5547;42.672;23.230;2023-08-01T14:52:50;92670.38;;;29.43;35.95
10988;BME280;5547;42.672;23.230;2023-08-01T14:55:59;92681.34;;;30.17;35.46
10988;BME280;5547;42.672;23.230;2023-08-01T14:59:01;92646.28;;;30.39;37.83
10988;BME280;5547;42.672;23.230;2023-08-01T15:02:02;92680.09;;;30.49;35.18
10988;BME280;5547;42.672;23.230;2023-08-01T15:05:03;92658.72;;;29.58;35.46
10988;BME280;5547;42.672;23.230;2023-08-01T15:08:03;92673.09;;;29.94;34.71
10988;BME280;5547;42.672;23.230;2023-08-01T15:11:06;92669.84;;;30.27;35.31
10988;BME280;5547;42.672;23.230;2023-08-01T15:14:07;92668.16;;;30.08;34.84
10988;BME280;5547;42.672;23.230;2023-08-01T15:17:08;92666.88;;;29.79;33.61
10988;BME280;5547;42.672;23.230;2023-08-01T15:20:09;92616.63;;;29.24;35.57
10988;BME280;5547;42.672;23.230;2023-08-01T15:23:10;92611.53;;;28.84;34.49
10988;BME280;5547;42.672;23.230;2023-08-01T15:26:10;92642.78;;;29.33;33.31
10988;BME280;5547;42.672;23.230;2023-08-01T15:29:11;92638.28;;;29.51;31.57
10988;BME280;5547;42.672;23.230;2023-08-01T15:32:11;92644.59;;;29.30;32.78
10988;BME280;5547;42.672;23.230;2023-08-01T15:35:11;92640.34;;;29.14;37.49
10988;BME280;5547;42.672;23.230;2023-08-01T15:38:14;92611.94;;;28.96;32.93
10988;BME280;5547;42.672;23.230;2023-08-01T15:41:14;92632.41;;;29.03;36.20
10988;BME280;5547;42.672;23.230;2023-08-01T15:44:15;92634.38;;;28.95;34.21
10988;BME280;5547;42.672;23.230;2023-08-01T15:47:15;92636.19;;;28.92;33.74
10988;BME280;5547;42.672;23.230;2023-08-01T15:50:16;92623.78;;;28.55;36.46
10988;BME280;5547;42.672;23.230;2023-08-01T15:53:16;92607.72;;;28.30;37.84